sensor_id;sensor_type;location;lat;lon;timestamp;P1;durP1;ratioP1;P2;durP2;ratioP2
24223;SDS011;12359;49.716;9.212;2023-03-19T00:01:28;0.13;;;0.13;;
24223;SDS011;12359;49.716;9.212;2023-03-19T00:03:54;0.20;;;0.20;;
24223;SDS011;12359;49.716;9.212;2023-03-19T00:06:20;0.20;;;0.20;;
24223;SDS011;12359;49.716;9.212;2023-03-19T00:08:46;0.20;;;0.20;;
24223;SDS011;12359;49.716;9.212;2023-03-19T00:11:12;0.20;;;0.20;;
24223;SDS011;12359;49.716;9.212;2023-03-19T00:13:38;0.20;;;0.20;;
24223;SDS011;12359;49.716;9.212;2023-03-19T00:16:05;0.20;;;0.20;;
24223;SDS011;12359;49.716;9.212;2023-03-19T00:18:31;0.20;;;0.20;;
24223;SDS011;12359;49.716;9.212;2023-03-19T00:20:57;0.20;;;0.20;;
24223;SDS011;12359;49.716;9.212;2023-03-19T00:23:23;0.20;;;0.20;;
24223;SDS011;12359;49.716;9.212;2023-03-19T00:25:49;0.20;;;0.20;;
24223;SDS011;12359;49.716;9.212;2023-03-19T00:28:15;0.20;;;0.20;;
24223;SDS011;12359;49.716;9.212;2023-03-19T00:30:41;0.20;;;0.20;;
24223;SDS011;12359;49.716;9.212;2023-03-19T00:33:09;0.20;;;0.20;;
24223;SDS011;12359;49.716;9.212;2023-03-19T00:35:34;0.20;;;0.20;;
24223;SDS011;12359;49.716;9.212;2023-03-19T00:38:00;0.20;;;0.20;;
24223;SDS011;12359;49.716;9.212;2023-03-19T00:40:26;0.20;;;0.20;;
24223;SDS011;12359;49.716;9.212;2023-03-19T00:42:51;0.20;;;0.20;;
24223;SDS011;12359;49.716;9.212;2023-03-19T00:45:17;0.20;;;0.20;;
24223;SDS011;12359;49.716;9.212;2023-03-19T00:47:43;0.22;;;0.22;;
24223;SDS011;12359;49.716;9.212;2023-03-19T00:50:09;0.20;;;0.20;;
24223;SDS011;12359;49.716;9.212;2023-03-19T00:52:35;0.20;;;0.20;;
24223;SDS011;12359;49.716;9.212;2023-03-19T00:55:01;0.20;;;0.20;;
24223;SDS011;12359;49.716;9.212;2023-03-19T00:57:26;0.20;;;0.20;;
24223;SDS011;12359;49.716;9.212;2023-03-19T00:59:52;0.20;;;0.20;;
24223;SDS011;12359;49.716;9.212;2023-03-19T01:02:18;0.20;;;0.20;;
24223;SDS011;12359;49.716;9.212;2023-03-19T01:04:44;0.20;;;0.20;;
24223;SDS011;12359;49.716;9.212;2023-03-19T01:07:12;0.20;;;0.20;;
24223;SDS011;12359;49.716;9.212;2023-03-19T01:09:37;0.20;;;0.20;;
24223;SDS011;12359;49.716;9.212;2023-03-19T01:12:03;0.20;;;0.20;;
24223;SDS011;12359;49.716;9.212;2023-03-19T01:14:30;0.20;;;0.20;;
24223;SDS011;12359;49.716;9.212;2023-03-19T01:16:56;0.20;;;0.20;;
24223;SDS011;12359;49.716;9.212;2023-03-19T01:19:21;0.20;;;0.20;;
24223;SDS011;12359;49.716;9.212;2023-03-19T01:21:48;0.20;;;0.20;;
24223;SDS011;12359;49.716;9.212;2023-03-19T01:24:14;0.20;;;0.20;;
24223;SDS011;12359;49.716;9.212;2023-03-19T01:26:40;0.20;;;0.20;;
24223;SDS011;12359;49.716;9.212;2023-03-19T01:29:07;0.20;;;0.20;;
24223;SDS011;12359;49.716;9.212;2023-03-19T01:31:33;0.20;;;0.20;;
24223;SDS011;12359;49.716;9.212;2023-03-19T01:34:03;0.20;;;0.20;;
24223;SDS011;12359;49.716;9.212;2023-03-19T01:36:28;0.20;;;0.20;;
24223;SDS011;12359;49.716;9.212;2023-03-19T01:38:54;0.20;;;0.20;;
24223;SDS011;12359;49.716;9.212;2023-03-19T01:41:21;0.20;;;0.20;;
24223;SDS011;12359;49.716;9.212;2023-03-19T01:43:47;0.20;;;0.20;;
24223;SDS011;12359;49.716;9.212;2023-03-19T01:46:21;0.20;;;0.20;;
24223;SDS011;12359;49.716;9.212;2023-03-19T01:48:53;0.20;;;0.20;;
24223;SDS011;12359;49.716;9.212;2023-03-19T01:51:22;0.20;;;0.20;;
24223;SDS011;12359;49.716;9.212;2023-03-19T01:53:52;0.20;;;0.20;;
24223;SDS011;12359;49.716;9.212;2023-03-19T01:56:24;0.20;;;0.20;;
24223;SDS011;12359;49.716;9.212;2023-03-19T01:58:55;0.20;;;0.20;;
24223;SDS011;12359;49.716;9.212;2023-03-19T02:01:22;0.20;;;0.20;;
24223;SDS011;12359;49.716;9.212;2023-03-19T02:03:49;0.20;;;0.20;;
24223;SDS011;12359;49.716;9.212;2023-03-19T02:06:16;0.20;;;0.20;;
24223;SDS011;12359;49.716;9.212;2023-03-19T02:08:46;0.20;;;0.20;;
24223;SDS011;12359;49.716;9.212;2023-03-19T02:11:13;0.30;;;0.30;;
24223;SDS011;12359;49.716;9.212;2023-03-19T02:13:38;0.20;;;0.20;;
24223;SDS011;12359;49.716;9.212;2023-03-19T02:16:04;0.20;;;0.20;;
24223;SDS011;12359;49.716;9.212;2023-03-19T02:18:30;0.20;;;0.20;;
24223;SDS011;12359;49.716;9.212;2023-03-19T02:23:36;0.20;;;0.20;;
24223;SDS011;12359;49.716;9.212;2023-03-19T02:26:23;0.20;;;0.20;;
24223;SDS011;12359;49.716;9.212;2023-03-19T02:28:52;0.20;;;0.20;;
24223;SDS011;12359;49.716;9.212;2023-03-19T02:31:18;0.20;;;0.20;;
24223;SDS011;12359;49.716;9.212;2023-03-19T02:34:14;0.30;;;0.30;;
24223;SDS011;12359;49.716;9.212;2023-03-19T02:36:51;0.30;;;0.30;;
24223;SDS011;12359;49.716;9.212;2023-03-19T02:39:54;0.20;;;0.20;;
24223;SDS011;12359;49.716;9.212;2023-03-19T02:42:26;0.20;;;0.20;;
24223;SDS011;12359;49.716;9.212;2023-03-19T02:44:53;0.20;;;0.20;;
24223;SDS011;12359;49.716;9.212;2023-03-19T02:47:18;0.20;;;0.20;;
24223;SDS011;12359;49.716;9.212;2023-03-19T02:49:44;0.22;;;0.22;;
24223;SDS011;12359;49.716;9.212;2023-03-19T02:52:10;0.20;;;0.20;;
24223;SDS011;12359;49.716;9.212;2023-03-19T02:54:36;0.20;;;0.20;;
24223;SDS011;12359;49.716;9.212;2023-03-19T02:57:02;0.20;;;0.20;;
24223;SDS011;12359;49.716;9.212;2023-03-19T02:59:28;0.20;;;0.20;;
24223;SDS011;12359;49.716;9.212;2023-03-19T03:01:53;0.20;;;0.20;;
24223;SDS011;12359;49.716;9.212;2023-03-19T03:04:19;0.20;;;0.20;;
24223;SDS011;12359;49.716;9.212;2023-03-19T03:06:45;0.20;;;0.20;;
24223;SDS011;12359;49.716;9.212;2023-03-19T03:09:13;0.20;;;0.20;;
24223;SDS011;12359;49.716;9.212;2023-03-19T03:11:39;0.20;;;0.20;;
24223;SDS011;12359;49.716;9.212;2023-03-19T03:14:05;0.20;;;0.20;;
24223;SDS011;12359;49.716;9.212;2023-03-19T03:16:31;0.10;;;0.10;;
24223;SDS011;12359;49.716;9.212;2023-03-19T03:18:58;0.20;;;0.20;;
24223;SDS011;12359;49.716;9.212;2023-03-19T03:21:24;0.30;;;0.30;;
24223;SDS011;12359;49.716;9.212;2023-03-19T03:23:50;0.20;;;0.20;;
24223;SDS011;12359;49.716;9.212;2023-03-19T03:26:17;0.20;;;0.20;;
24223;SDS011;12359;49.716;9.212;2023-03-19T03:28:43;0.20;;;0.20;;
24223;SDS011;12359;49.716;9.212;2023-03-19T03:31:09;0.20;;;0.20;;
24223;SDS011;12359;49.716;9.212;2023-03-19T03:33:35;0.20;;;0.20;;
24223;SDS011;12359;49.716;9.212;2023-03-19T03:36:01;0.20;;;0.20;;
24223;SDS011;12359;49.716;9.212;2023-03-19T03:38:27;0.20;;;0.20;;
24223;SDS011;12359;49.716;9.212;2023-03-19T03:40:53;0.20;;;0.20;;
24223;SDS011;12359;49.716;9.212;2023-03-19T03:43:19;0.20;;;0.20;;
24223;SDS011;12359;49.716;9.212;2023-03-19T03:45:45;0.20;;;0.20;;
24223;SDS011;12359;49.716;9.212;2023-03-19T03:48:13;0.20;;;0.20;;
24223;SDS011;12359;49.716;9.212;2023-03-19T03:50:39;0.20;;;0.20;;
24223;SDS011;12359;49.716;9.212;2023-03-19T03:53:04;0.20;;;0.20;;
24223;SDS011;12359;49.716;9.212;2023-03-19T03:55:30;0.20;;;0.20;;
24223;SDS011;12359;49.716;9.212;2023-03-19T03:57:57;0.30;;;0.30;;
24223;SDS011;12359;49.716;9.212;2023-03-19T04:00:23;0.20;;;0.20;;
24223;SDS011;12359;49.716;9.212;2023-03-19T04:02:49;0.20;;;0.20;;
24223;SDS011;12359;49.716;9.212;2023-03-19T04:05:15;0.20;;;0.20;;
24223;SDS011;12359;49.716;9.212;2023-03-19T04:07:41;0.20;;;0.20;;
24223;SDS011;12359;49.716;9.212;2023-03-19T04:10:08;0.20;;;0.20;;
24223;SDS011;12359;49.716;9.212;2023-03-19T04:12:36;0.30;;;0.30;;
24223;SDS011;12359;49.716;9.212;2023-03-19T04:15:02;0.13;;;0.13;;
24223;SDS011;12359;49.716;9.212;2023-03-19T04:17:29;0.20;;;0.20;;
24223;SDS011;12359;49.716;9.212;2023-03-19T04:19:55;0.20;;;0.20;;
24223;SDS011;12359;49.716;9.212;2023-03-19T04:22:21;0.20;;;0.20;;
24223;SDS011;12359;49.716;9.212;2023-03-19T04:24:46;0.20;;;0.20;;
24223;SDS011;12359;49.716;9.212;2023-03-19T04:27:12;0.20;;;0.20;;
24223;SDS011;12359;49.716;9.212;2023-03-19T04:29:38;0.20;;;0.20;;
24223;SDS011;12359;49.716;9.212;2023-03-19T04:32:03;0.28;;;0.28;;
24223;SDS011;12359;49.716;9.212;2023-03-19T04:34:29;0.20;;;0.20;;
24223;SDS011;12359;49.716;9.212;2023-03-19T04:36:56;0.20;;;0.20;;
24223;SDS011;12359;49.716;9.212;2023-03-19T04:39:22;0.20;;;0.20;;
24223;SDS011;12359;49.716;9.212;2023-03-19T04:41:48;0.20;;;0.20;;
24223;SDS011;12359;49.716;9.212;2023-03-19T04:44:14;0.17;;;0.17;;
24223;SDS011;12359;49.716;9.212;2023-03-19T04:46:40;0.20;;;0.20;;
24223;SDS011;12359;49.716;9.212;2023-03-19T04:49:08;0.20;;;0.20;;
24223;SDS011;12359;49.716;9.212;2023-03-19T04:51:34;0.20;;;0.20;;
24223;SDS011;12359;49.716;9.212;2023-03-19T04:53:59;0.20;;;0.20;;
24223;SDS011;12359;49.716;9.212;2023-03-19T04:56:25;0.20;;;0.20;;
24223;SDS011;12359;49.716;9.212;2023-03-19T04:58:51;0.20;;;0.20;;
24223;SDS011;12359;49.716;9.212;2023-03-19T05:01:18;0.20;;;0.20;;
24223;SDS011;12359;49.716;9.212;2023-03-19T05:03:44;0.20;;;0.20;;
24223;SDS011;12359;49.716;9.212;2023-03-19T05:06:10;0.20;;;0.20;;
24223;SDS011;12359;49.716;9.212;2023-03-19T05:08:36;0.20;;;0.20;;
24223;SDS011;12359;49.716;9.212;2023-03-19T05:11:02;0.20;;;0.20;;
24223;SDS011;12359;49.716;9.212;2023-03-19T05:13:28;0.20;;;0.20;;
24223;SDS011;12359;49.716;9.212;2023-03-19T05:15:53;0.20;;;0.20;;
24223;SDS011;12359;49.716;9.212;2023-03-19T05:18:19;0.20;;;0.20;;
24223;SDS011;12359;49.716;9.212;2023-03-19T05:20:45;0.20;;;0.20;;
24223;SDS011;12359;49.716;9.212;2023-03-19T05:23:11;0.20;;;0.20;;
24223;SDS011;12359;49.716;9.212;2023-03-19T05:25:37;0.20;;;0.20;;
24223;SDS011;12359;49.716;9.212;2023-03-19T05:28:03;0.20;;;0.20;;
24223;SDS011;12359;49.716;9.212;2023-03-19T05:30:29;0.22;;;0.22;;
24223;SDS011;12359;49.716;9.212;2023-03-19T05:32:56;0.20;;;0.20;;
24223;SDS011;12359;49.716;9.212;2023-03-19T05:35:23;0.30;;;0.30;;
24223;SDS011;12359;49.716;9.212;2023-03-19T05:37:50;0.20;;;0.20;;
24223;SDS011;12359;49.716;9.212;2023-03-19T05:40:15;0.20;;;0.20;;
24223;SDS011;12359;49.716;9.212;2023-03-19T05:42:41;0.20;;;0.20;;
24223;SDS011;12359;49.716;9.212;2023-03-19T05:45:07;0.22;;;0.22;;
24223;SDS011;12359;49.716;9.212;2023-03-19T05:47:33;0.20;;;0.20;;
24223;SDS011;12359;49.716;9.212;2023-03-19T05:49:59;0.20;;;0.20;;
24223;SDS011;12359;49.716;9.212;2023-03-19T05:52:25;0.20;;;0.20;;
24223;SDS011;12359;49.716;9.212;2023-03-19T05:54:50;0.20;;;0.20;;
24223;SDS011;12359;49.716;9.212;2023-03-19T05:57:16;0.30;;;0.30;;
24223;SDS011;12359;49.716;9.212;2023-03-19T05:59:42;0.20;;;0.20;;
24223;SDS011;12359;49.716;9.212;2023-03-19T06:02:08;0.30;;;0.30;;
24223;SDS011;12359;49.716;9.212;2023-03-19T06:04:34;0.20;;;0.20;;
24223;SDS011;12359;49.716;9.212;2023-03-19T06:06:59;0.20;;;0.20;;
24223;SDS011;12359;49.716;9.212;2023-03-19T06:09:25;0.20;;;0.20;;
24223;SDS011;12359;49.716;9.212;2023-03-19T06:11:51;0.20;;;0.20;;
24223;SDS011;12359;49.716;9.212;2023-03-19T06:14:16;0.30;;;0.30;;
24223;SDS011;12359;49.716;9.212;2023-03-19T06:16:42;0.20;;;0.20;;
24223;SDS011;12359;49.716;9.212;2023-03-19T06:19:08;0.20;;;0.20;;
24223;SDS011;12359;49.716;9.212;2023-03-19T06:21:34;0.20;;;0.20;;
24223;SDS011;12359;49.716;9.212;2023-03-19T06:24:00;0.20;;;0.20;;
24223;SDS011;12359;49.716;9.212;2023-03-19T06:26:26;0.22;;;0.22;;
24223;SDS011;12359;49.716;9.212;2023-03-19T06:28:52;0.20;;;0.20;;
24223;SDS011;12359;49.716;9.212;2023-03-19T06:31:18;0.30;;;0.30;;
24223;SDS011;12359;49.716;9.212;2023-03-19T06:33:43;0.20;;;0.20;;
24223;SDS011;12359;49.716;9.212;2023-03-19T06:36:09;0.20;;;0.20;;
24223;SDS011;12359;49.716;9.212;2023-03-19T06:38:35;0.30;;;0.30;;
24223;SDS011;12359;49.716;9.212;2023-03-19T06:41:01;0.20;;;0.20;;
24223;SDS011;12359;49.716;9.212;2023-03-19T06:43:27;0.30;;;0.30;;
24223;SDS011;12359;49.716;9.212;2023-03-19T06:45:52;0.20;;;0.20;;
24223;SDS011;12359;49.716;9.212;2023-03-19T06:48:18;0.20;;;0.20;;
24223;SDS011;12359;49.716;9.212;2023-03-19T06:50:44;0.20;;;0.20;;
24223;SDS011;12359;49.716;9.212;2023-03-19T06:53:11;0.28;;;0.28;;
24223;SDS011;12359;49.716;9.212;2023-03-19T06:55:40;0.20;;;0.20;;
24223;SDS011;12359;49.716;9.212;2023-03-19T06:58:06;0.20;;;0.20;;
24223;SDS011;12359;49.716;9.212;2023-03-19T07:00:32;0.20;;;0.20;;
24223;SDS011;12359;49.716;9.212;2023-03-19T07:02:58;0.20;;;0.20;;
24223;SDS011;12359;49.716;9.212;2023-03-19T07:05:24;0.20;;;0.20;;
24223;SDS011;12359;49.716;9.212;2023-03-19T07:07:50;0.20;;;0.20;;
24223;SDS011;12359;49.716;9.212;2023-03-19T07:10:19;0.20;;;0.20;;
24223;SDS011;12359;49.716;9.212;2023-03-19T07:12:45;0.20;;;0.20;;
24223;SDS011;12359;49.716;9.212;2023-03-19T07:15:11;0.20;;;0.20;;
24223;SDS011;12359;49.716;9.212;2023-03-19T07:17:37;0.20;;;0.20;;
24223;SDS011;12359;49.716;9.212;2023-03-19T07:20:03;0.20;;;0.20;;
24223;SDS011;12359;49.716;9.212;2023-03-19T07:22:29;0.20;;;0.20;;
24223;SDS011;12359;49.716;9.212;2023-03-19T07:24:55;0.20;;;0.20;;
24223;SDS011;12359;49.716;9.212;2023-03-19T07:27:20;0.20;;;0.20;;
24223;SDS011;12359;49.716;9.212;2023-03-19T07:29:46;0.20;;;0.20;;
24223;SDS011;12359;49.716;9.212;2023-03-19T07:32:12;0.20;;;0.20;;
24223;SDS011;12359;49.716;9.212;2023-03-19T07:34:38;0.20;;;0.20;;
24223;SDS011;12359;49.716;9.212;2023-03-19T07:37:03;0.20;;;0.20;;
24223;SDS011;12359;49.716;9.212;2023-03-19T07:39:29;0.20;;;0.20;;
24223;SDS011;12359;49.716;9.212;2023-03-19T07:41:55;0.20;;;0.20;;
24223;SDS011;12359;49.716;9.212;2023-03-19T07:44:20;0.20;;;0.20;;
24223;SDS011;12359;49.716;9.212;2023-03-19T07:46:46;0.20;;;0.20;;
24223;SDS011;12359;49.716;9.212;2023-03-19T07:49:12;0.20;;;0.20;;
24223;SDS011;12359;49.716;9.212;2023-03-19T07:51:38;0.20;;;0.20;;
24223;SDS011;12359;49.716;9.212;2023-03-19T07:54:03;0.20;;;0.20;;
24223;SDS011;12359;49.716;9.212;2023-03-19T07:56:29;0.20;;;0.20;;
24223;SDS011;12359;49.716;9.212;2023-03-19T07:58:55;0.20;;;0.20;;
24223;SDS011;12359;49.716;9.212;2023-03-19T08:01:20;0.20;;;0.20;;
24223;SDS011;12359;49.716;9.212;2023-03-19T08:03:46;0.20;;;0.20;;
24223;SDS011;12359;49.716;9.212;2023-03-19T08:06:12;0.20;;;0.20;;
24223;SDS011;12359;49.716;9.212;2023-03-19T08:08:38;0.20;;;0.20;;
24223;SDS011;12359;49.716;9.212;2023-03-19T08:11:05;0.20;;;0.20;;
24223;SDS011;12359;49.716;9.212;2023-03-19T08:13:31;0.20;;;0.20;;
24223;SDS011;12359;49.716;9.212;2023-03-19T08:15:57;0.20;;;0.20;;
24223;SDS011;12359;49.716;9.212;2023-03-19T08:18:23;0.20;;;0.20;;
24223;SDS011;12359;49.716;9.212;2023-03-19T08:20:48;0.20;;;0.20;;
24223;SDS011;12359;49.716;9.212;2023-03-19T08:23:14;0.20;;;0.20;;
24223;SDS011;12359;49.716;9.212;2023-03-19T08:25:41;0.20;;;0.20;;
24223;SDS011;12359;49.716;9.212;2023-03-19T08:28:06;0.20;;;0.20;;
24223;SDS011;12359;49.716;9.212;2023-03-19T08:30:34;0.20;;;0.20;;
24223;SDS011;12359;49.716;9.212;2023-03-19T08:33:01;0.20;;;0.20;;
24223;SDS011;12359;49.716;9.212;2023-03-19T08:35:28;0.20;;;0.20;;
24223;SDS011;12359;49.716;9.212;2023-03-19T08:37:53;0.20;;;0.20;;
24223;SDS011;12359;49.716;9.212;2023-03-19T08:40:20;0.20;;;0.20;;
24223;SDS011;12359;49.716;9.212;2023-03-19T08:42:46;0.20;;;0.20;;
24223;SDS011;12359;49.716;9.212;2023-03-19T08:45:12;0.13;;;0.13;;
24223;SDS011;12359;49.716;9.212;2023-03-19T08:47:40;0.20;;;0.20;;
24223;SDS011;12359;49.716;9.212;2023-03-19T08:50:06;0.20;;;0.20;;
24223;SDS011;12359;49.716;9.212;2023-03-19T08:52:33;0.20;;;0.20;;
24223;SDS011;12359;49.716;9.212;2023-03-19T08:54:59;0.20;;;0.20;;
24223;SDS011;12359;49.716;9.212;2023-03-19T08:57:24;0.10;;;0.10;;
24223;SDS011;12359;49.716;9.212;2023-03-19T08:59:53;0.10;;;0.10;;
24223;SDS011;12359;49.716;9.212;2023-03-19T09:02:19;0.10;;;0.10;;
24223;SDS011;12359;49.716;9.212;2023-03-19T09:04:45;0.20;;;0.20;;
24223;SDS011;12359;49.716;9.212;2023-03-19T09:07:11;0.20;;;0.20;;
24223;SDS011;12359;49.716;9.212;2023-03-19T09:09:37;0.10;;;0.10;;
24223;SDS011;12359;49.716;9.212;2023-03-19T09:12:05;0.10;;;0.10;;
24223;SDS011;12359;49.716;9.212;2023-03-19T09:14:31;0.10;;;0.10;;
24223;SDS011;12359;49.716;9.212;2023-03-19T09:16:58;0.10;;;0.10;;
24223;SDS011;12359;49.716;9.212;2023-03-19T09:19:23;0.10;;;0.10;;
24223;SDS011;12359;49.716;9.212;2023-03-19T09:21:50;0.10;;;0.10;;
24223;SDS011;12359;49.716;9.212;2023-03-19T09:24:15;0.10;;;0.10;;
24223;SDS011;12359;49.716;9.212;2023-03-19T09:26:42;0.10;;;0.10;;
24223;SDS011;12359;49.716;9.212;2023-03-19T09:29:08;0.10;;;0.10;;
24223;SDS011;12359;49.716;9.212;2023-03-19T09:31:35;0.10;;;0.10;;
24223;SDS011;12359;49.716;9.212;2023-03-19T09:34:01;0.10;;;0.10;;
24223;SDS011;12359;49.716;9.212;2023-03-19T09:36:27;0.10;;;0.10;;
24223;SDS011;12359;49.716;9.212;2023-03-19T09:38:52;0.10;;;0.10;;
24223;SDS011;12359;49.716;9.212;2023-03-19T09:41:22;0.10;;;0.10;;
24223;SDS011;12359;49.716;9.212;2023-03-19T09:49:31;0.10;;;0.10;;
24223;SDS011;12359;49.716;9.212;2023-03-19T09:52:08;0.10;;;0.10;;
24223;SDS011;12359;49.716;9.212;2023-03-19T09:54:46;0.10;;;0.10;;
24223;SDS011;12359;49.716;9.212;2023-03-19T09:57:16;0.10;;;0.10;;
24223;SDS011;12359;49.716;9.212;2023-03-19T09:59:43;0.05;;;0.05;;
24223;SDS011;12359;49.716;9.212;2023-03-19T10:02:32;0.10;;;0.10;;
24223;SDS011;12359;49.716;9.212;2023-03-19T10:07:49;0.00;;;0.00;;
24223;SDS011;12359;49.716;9.212;2023-03-19T10:16:08;0.00;;;0.00;;
24223;SDS011;12359;49.716;9.212;2023-03-19T10:18:41;0.10;;;0.10;;
24223;SDS011;12359;49.716;9.212;2023-03-19T10:21:13;0.10;;;0.10;;
24223;SDS011;12359;49.716;9.212;2023-03-19T10:26:31;0.10;;;0.10;;
24223;SDS011;12359;49.716;9.212;2023-03-19T10:34:34;0.10;;;0.10;;
24223;SDS011;12359;49.716;9.212;2023-03-19T10:37:03;0.00;;;0.00;;
24223;SDS011;12359;49.716;9.212;2023-03-19T10:39:43;0.00;;;0.00;;
24223;SDS011;12359;49.716;9.212;2023-03-19T10:47:51;0.10;;;0.10;;
24223;SDS011;12359;49.716;9.212;2023-03-19T10:50:18;0.10;;;0.10;;
24223;SDS011;12359;49.716;9.212;2023-03-19T10:52:51;0.10;;;0.10;;
24223;SDS011;12359;49.716;9.212;2023-03-19T10:55:24;0.10;;;0.10;;
24223;SDS011;12359;49.716;9.212;2023-03-19T10:58:13;0.10;;;0.10;;
24223;SDS011;12359;49.716;9.212;2023-03-19T11:00:41;0.10;;;0.10;;
24223;SDS011;12359;49.716;9.212;2023-03-19T11:08:29;0.10;;;0.10;;
24223;SDS011;12359;49.716;9.212;2023-03-19T11:10:59;0.10;;;0.10;;
24223;SDS011;12359;49.716;9.212;2023-03-19T11:13:25;0.10;;;0.10;;
24223;SDS011;12359;49.716;9.212;2023-03-19T11:15:52;0.10;;;0.10;;
24223;SDS011;12359;49.716;9.212;2023-03-19T11:18:35;0.10;;;0.10;;
24223;SDS011;12359;49.716;9.212;2023-03-19T11:21:07;0.10;;;0.10;;
24223;SDS011;12359;49.716;9.212;2023-03-19T11:23:46;0.10;;;0.10;;
24223;SDS011;12359;49.716;9.212;2023-03-19T11:26:17;0.10;;;0.10;;
24223;SDS011;12359;49.716;9.212;2023-03-19T11:28:44;0.10;;;0.10;;
24223;SDS011;12359;49.716;9.212;2023-03-19T11:40:23;0.10;;;0.10;;
24223;SDS011;12359;49.716;9.212;2023-03-19T11:56:46;0.10;;;0.10;;
24223;SDS011;12359;49.716;9.212;2023-03-19T12:07:59;0.10;;;0.10;;
24223;SDS011;12359;49.716;9.212;2023-03-19T12:16:16;0.10;;;0.10;;
24223;SDS011;12359;49.716;9.212;2023-03-19T12:27:21;0.00;;;0.00;;
24223;SDS011;12359;49.716;9.212;2023-03-19T12:35:48;0.10;;;0.10;;
24223;SDS011;12359;49.716;9.212;2023-03-19T12:41:04;0.10;;;0.10;;
24223;SDS011;12359;49.716;9.212;2023-03-19T12:43:43;0.10;;;0.10;;
24223;SDS011;12359;49.716;9.212;2023-03-19T12:46:30;0.10;;;0.10;;
24223;SDS011;12359;49.716;9.212;2023-03-19T12:51:27;0.10;;;0.10;;
24223;SDS011;12359;49.716;9.212;2023-03-19T12:54:00;0.10;;;0.10;;
24223;SDS011;12359;49.716;9.212;2023-03-19T12:59:17;0.10;;;0.10;;
24223;SDS011;12359;49.716;9.212;2023-03-19T13:01:49;0.10;;;0.10;;
24223;SDS011;12359;49.716;9.212;2023-03-19T13:04:24;0.10;;;0.10;;
24223;SDS011;12359;49.716;9.212;2023-03-19T13:09:35;0.10;;;0.10;;
24223;SDS011;12359;49.716;9.212;2023-03-19T13:12:09;0.10;;;0.10;;
24223;SDS011;12359;49.716;9.212;2023-03-19T13:20:24;0.10;;;0.10;;
24223;SDS011;12359;49.716;9.212;2023-03-19T13:23:11;0.10;;;0.10;;
24223;SDS011;12359;49.716;9.212;2023-03-19T13:25:42;0.10;;;0.10;;
24223;SDS011;12359;49.716;9.212;2023-03-19T13:28:16;0.10;;;0.10;;
24223;SDS011;12359;49.716;9.212;2023-03-19T13:30:58;0.10;;;0.10;;
24223;SDS011;12359;49.716;9.212;2023-03-19T13:33:26;0.10;;;0.10;;
24223;SDS011;12359;49.716;9.212;2023-03-19T13:35:53;0.10;;;0.10;;
24223;SDS011;12359;49.716;9.212;2023-03-19T13:38:24;0.10;;;0.10;;
24223;SDS011;12359;49.716;9.212;2023-03-19T13:40:55;0.10;;;0.10;;
24223;SDS011;12359;49.716;9.212;2023-03-19T13:43:23;0.10;;;0.10;;
24223;SDS011;12359;49.716;9.212;2023-03-19T13:53:54;0.10;;;0.10;;
24223;SDS011;12359;49.716;9.212;2023-03-19T13:56:34;0.10;;;0.10;;
24223;SDS011;12359;49.716;9.212;2023-03-19T13:59:28;0.10;;;0.10;;
24223;SDS011;12359;49.716;9.212;2023-03-19T14:01:58;0.10;;;0.10;;
24223;SDS011;12359;49.716;9.212;2023-03-19T14:04:29;0.10;;;0.10;;
24223;SDS011;12359;49.716;9.212;2023-03-19T14:09:50;0.10;;;0.10;;
24223;SDS011;12359;49.716;9.212;2023-03-19T14:12:35;0.10;;;0.10;;
24223;SDS011;12359;49.716;9.212;2023-03-19T14:17:33;0.10;;;0.10;;
24223;SDS011;12359;49.716;9.212;2023-03-19T14:22:36;0.10;;;0.10;;
24223;SDS011;12359;49.716;9.212;2023-03-19T14:25:12;0.10;;;0.10;;
24223;SDS011;12359;49.716;9.212;2023-03-19T14:27:42;0.20;;;0.20;;
24223;SDS011;12359;49.716;9.212;2023-03-19T14:30:25;0.10;;;0.10;;
24223;SDS011;12359;49.716;9.212;2023-03-19T14:32:58;0.10;;;0.10;;
24223;SDS011;12359;49.716;9.212;2023-03-19T14:35:27;0.10;;;0.10;;
24223;SDS011;12359;49.716;9.212;2023-03-19T14:38:00;0.10;;;0.10;;
24223;SDS011;12359;49.716;9.212;2023-03-19T14:40:41;0.10;;;0.10;;
24223;SDS011;12359;49.716;9.212;2023-03-19T14:43:16;0.10;;;0.10;;
24223;SDS011;12359;49.716;9.212;2023-03-19T14:56:36;0.10;;;0.10;;
24223;SDS011;12359;49.716;9.212;2023-03-19T14:59:01;0.10;;;0.10;;
24223;SDS011;12359;49.716;9.212;2023-03-19T15:01:32;0.10;;;0.10;;
24223;SDS011;12359;49.716;9.212;2023-03-19T15:04:05;0.10;;;0.10;;
24223;SDS011;12359;49.716;9.212;2023-03-19T15:06:38;0.10;;;0.10;;
24223;SDS011;12359;49.716;9.212;2023-03-19T15:09:26;0.10;;;0.10;;
24223;SDS011;12359;49.716;9.212;2023-03-19T15:17:22;0.10;;;0.10;;
24223;SDS011;12359;49.716;9.212;2023-03-19T15:19:51;0.10;;;0.10;;
24223;SDS011;12359;49.716;9.212;2023-03-19T15:24:46;0.10;;;0.10;;
24223;SDS011;12359;49.716;9.212;2023-03-19T15:29:44;0.10;;;0.10;;
24223;SDS011;12359;49.716;9.212;2023-03-19T15:32:10;0.10;;;0.10;;
24223;SDS011;12359;49.716;9.212;2023-03-19T15:34:35;0.10;;;0.10;;
24223;SDS011;12359;49.716;9.212;2023-03-19T15:37:08;0.10;;;0.10;;
24223;SDS011;12359;49.716;9.212;2023-03-19T15:39:39;0.10;;;0.10;;
24223;SDS011;12359;49.716;9.212;2023-03-19T15:42:10;0.10;;;0.10;;
24223;SDS011;12359;49.716;9.212;2023-03-19T15:44:39;0.10;;;0.10;;
24223;SDS011;12359;49.716;9.212;2023-03-19T15:47:12;0.10;;;0.10;;
24223;SDS011;12359;49.716;9.212;2023-03-19T15:49:56;0.15;;;0.15;;
24223;SDS011;12359;49.716;9.212;2023-03-19T15:52:30;0.10;;;0.10;;
24223;SDS011;12359;49.716;9.212;2023-03-19T15:55:00;0.10;;;0.10;;
24223;SDS011;12359;49.716;9.212;2023-03-19T15:57:27;0.10;;;0.10;;
24223;SDS011;12359;49.716;9.212;2023-03-19T15:59:53;0.20;;;0.20;;
24223;SDS011;12359;49.716;9.212;2023-03-19T16:02:28;0.10;;;0.10;;
24223;SDS011;12359;49.716;9.212;2023-03-19T16:04:58;0.10;;;0.10;;
24223;SDS011;12359;49.716;9.212;2023-03-19T16:10:19;0.15;;;0.15;;
24223;SDS011;12359;49.716;9.212;2023-03-19T16:12:56;0.10;;;0.10;;
24223;SDS011;12359;49.716;9.212;2023-03-19T16:15:39;0.20;;;0.20;;
24223;SDS011;12359;49.716;9.212;2023-03-19T16:20:43;0.20;;;0.20;;
24223;SDS011;12359;49.716;9.212;2023-03-19T16:23:35;0.10;;;0.10;;
24223;SDS011;12359;49.716;9.212;2023-03-19T16:31:39;0.10;;;0.10;;
24223;SDS011;12359;49.716;9.212;2023-03-19T16:42:44;0.10;;;0.10;;
24223;SDS011;12359;49.716;9.212;2023-03-19T16:47:42;0.20;;;0.20;;
24223;SDS011;12359;49.716;9.212;2023-03-19T16:50:15;0.10;;;0.10;;
24223;SDS011;12359;49.716;9.212;2023-03-19T16:52:43;0.10;;;0.10;;
24223;SDS011;12359;49.716;9.212;2023-03-19T16:55:20;0.10;;;0.10;;
24223;SDS011;12359;49.716;9.212;2023-03-19T17:00:32;0.20;;;0.20;;
24223;SDS011;12359;49.716;9.212;2023-03-19T17:02:58;0.10;;;0.10;;
24223;SDS011;12359;49.716;9.212;2023-03-19T17:05:25;0.10;;;0.10;;
24223;SDS011;12359;49.716;9.212;2023-03-19T17:07:52;0.20;;;0.20;;
24223;SDS011;12359;49.716;9.212;2023-03-19T17:10:22;0.10;;;0.10;;
24223;SDS011;12359;49.716;9.212;2023-03-19T17:12:51;0.10;;;0.10;;
24223;SDS011;12359;49.716;9.212;2023-03-19T17:15:32;0.20;;;0.20;;
24223;SDS011;12359;49.716;9.212;2023-03-19T17:18:01;0.20;;;0.20;;
24223;SDS011;12359;49.716;9.212;2023-03-19T17:20:33;0.10;;;0.10;;
24223;SDS011;12359;49.716;9.212;2023-03-19T17:23:03;0.15;;;0.15;;
24223;SDS011;12359;49.716;9.212;2023-03-19T17:25:37;0.20;;;0.20;;
24223;SDS011;12359;49.716;9.212;2023-03-19T17:28:02;0.10;;;0.10;;
24223;SDS011;12359;49.716;9.212;2023-03-19T17:30:28;0.13;;;0.13;;
24223;SDS011;12359;49.716;9.212;2023-03-19T17:32:54;0.10;;;0.10;;
24223;SDS011;12359;49.716;9.212;2023-03-19T17:35:21;0.20;;;0.20;;
24223;SDS011;12359;49.716;9.212;2023-03-19T17:37:47;0.10;;;0.10;;
24223;SDS011;12359;49.716;9.212;2023-03-19T17:42:40;0.15;;;0.15;;
24223;SDS011;12359;49.716;9.212;2023-03-19T17:45:06;0.20;;;0.20;;